Back to Top

Language: 

My Weather Underground Personal Weather Station Historical Data with Graphs...

Delerius Weather Station Historical Data
Daily Summary for August 24, 2017 Units:  Metric    English   Both
« Previous Day
Next Day »
Daily Weekly Monthly Yearly Custom
  High: Low: Average:
Temperature: 19.7 °C 11.3 °C 15.7 °C
Dew Point: 13.9 °C 10.2 °C 11.9 °C
Humidity: 94 % 61 % 79 %
Wind Speed: 17.7 km/h 0 km/h 7.4 km/h
Wind Gust: 38.6 km/h - -
Wind:- - West
Pressure: 1015.8 hPa 1012.1 hPa -
Precipitation: 0 mm    
Historical Graphs
 
 
Tabular Data for August 24, 2017
Time Temperature Dew Point Pressure Wind Wind Speed Wind Gust Humidity Rainfall Rate (Hourly) solar Conditions
00:03 13.4 °C 11.3 °C 1012.8 hPa Calm   6.4 km/h 87 % 0 mm 0 W/m2
00:08 13.3 °C 11.2 °C 1012.8 hPa Calm   6.4 km/h 87 % 0 mm 0 W/m2
00:13 13.2 °C 11.3 °C 1012.4 hPa Calm   1.6 km/h 88 % 0 mm 0 W/m2
00:18 13.1 °C 11.2 °C 1012.4 hPa Calm   1.6 km/h 88 % 0 mm 0 W/m2
00:23 13.1 °C 11.2 °C 1012.4 hPa Calm   3.2 km/h 88 % 0 mm 0 W/m2
00:28 13 °C 11.1 °C 1012.4 hPa Calm   3.2 km/h 88 % 0 mm 0 W/m2
00:33 12.9 °C 10.9 °C 1012.8 hPa Calm   6.4 km/h 88 % 0 mm 0 W/m2
00:38 12.8 °C 11.1 °C 1012.8 hPa Calm   6.4 km/h 89 % 0 mm 0 W/m2
00:39 12.8 °C 11.1 °C 1012.8 hPa Calm   6.4 km/h 89 % 0 mm 0 W/m2
00:44 12.8 °C 11.1 °C 1012.4 hPa Calm     89 % 0 mm 0 W/m2
00:49 12.7 °C 10.9 °C 1012.8 hPa Calm     89 % 0 mm 0 W/m2
00:54 12.7 °C 10.9 °C 1012.4 hPa West 1.6 km/h 9.7 km/h 89 % 0 mm 0 W/m2
00:59 12.7 °C 11.1 °C 1012.4 hPa West 1.6 km/h 9.7 km/h 90 % 0 mm 0 W/m2
01:04 12.7 °C 11.1 °C 1012.8 hPa West 1.6 km/h 8 km/h 90 % 0 mm 0 W/m2
01:09 12.7 °C 10.9 °C 1012.8 hPa West 1.6 km/h 9.7 km/h 89 % 0 mm 0 W/m2
01:14 12.7 °C 11.1 °C 1012.8 hPa West 4.8 km/h 14.5 km/h 90 % 0 mm 0 W/m2
01:19 12.8 °C 11.2 °C 1012.8 hPa West 9.7 km/h 17.7 km/h 90 % 0 mm 0 W/m2
01:24 12.9 °C 11.1 °C 1012.8 hPa West 11.3 km/h 17.7 km/h 89 % 0 mm 0 W/m2
01:29 13.1 °C 11.3 °C 1012.8 hPa West 9.7 km/h 16.1 km/h 89 % 0 mm 0 W/m2
01:34 13.1 °C 11.3 °C 1012.8 hPa West 9.7 km/h 17.7 km/h 89 % 0 mm 0 W/m2
01:39 13.1 °C 11.3 °C 1012.8 hPa West 11.3 km/h 17.7 km/h 89 % 0 mm 0 W/m2
01:44 13.1 °C 11.3 °C 1012.8 hPa West 11.3 km/h 17.7 km/h 89 % 0 mm 0 W/m2
01:49 13.1 °C 11.3 °C 1012.8 hPa West 11.3 km/h 16.1 km/h 89 % 0 mm 0 W/m2
01:54 13.2 °C 11.3 °C 1012.4 hPa West 11.3 km/h 17.7 km/h 88 % 0 mm 0 W/m2
01:59 13.2 °C 11.3 °C 1012.4 hPa West 11.3 km/h 17.7 km/h 88 % 0 mm 0 W/m2
02:04 13.2 °C 11.3 °C 1012.8 hPa West 11.3 km/h 16.1 km/h 88 % 0 mm 0 W/m2
02:09 13.2 °C 11.3 °C 1012.8 hPa West 11.3 km/h 16.1 km/h 88 % 0 mm 0 W/m2
02:14 13.2 °C 11.3 °C 1012.8 hPa West 11.3 km/h 17.7 km/h 88 % 0 mm 0 W/m2
02:19 13.2 °C 11.3 °C 1012.8 hPa West 11.3 km/h 17.7 km/h 88 % 0 mm 0 W/m2
02:24 13.2 °C 11.3 °C 1012.4 hPa West 11.3 km/h 17.7 km/h 88 % 0 mm 0 W/m2
02:29 13.3 °C 11.3 °C 1012.8 hPa West 9.7 km/h 17.7 km/h 88 % 0 mm 0 W/m2
02:34 13.3 °C 11.3 °C 1012.8 hPa WNW 9.7 km/h 17.7 km/h 88 % 0 mm 0 W/m2
02:39 13.3 °C 11.3 °C 1012.8 hPa WNW 8 km/h 14.5 km/h 88 % 0 mm 0 W/m2
02:44 13.3 °C 11.2 °C 1012.8 hPa WNW 6.4 km/h 12.9 km/h 87 % 0 mm 0 W/m2
02:49 13.3 °C 11.2 °C 1012.8 hPa West 4.8 km/h 12.9 km/h 87 % 0 mm 0 W/m2
02:54 13.2 °C 11.1 °C 1012.8 hPa WSW 1.6 km/h 9.7 km/h 87 % 0 mm 0 W/m2
02:59 13.1 °C 11 °C 1012.8 hPa Calm   3.2 km/h 87 % 0 mm 0 W/m2
03:04 13 °C 11.1 °C 1012.8 hPa Calm   8 km/h 88 % 0 mm 0 W/m2
03:09 13.1 °C 11.2 °C 1012.8 hPa SW 1.6 km/h 8 km/h 88 % 0 mm 0 W/m2
03:14 13.1 °C 11.2 °C 1012.8 hPa Calm   8 km/h 88 % 0 mm 0 W/m2
03:19 13 °C 11.1 °C 1012.8 hPa Calm   8 km/h 88 % 0 mm 0 W/m2
03:24 12.9 °C 10.9 °C 1012.8 hPa Calm   8 km/h 88 % 0 mm 0 W/m2
03:29 12.8 °C 10.8 °C 1012.8 hPa Calm   8 km/h 88 % 0 mm 0 W/m2
03:34 12.8 °C 10.8 °C 1012.8 hPa SW 3.2 km/h 9.7 km/h 88 % 0 mm 0 W/m2
03:40 12.8 °C 11.1 °C 1012.8 hPa SW 4.8 km/h 9.7 km/h 89 % 0 mm 0 W/m2
03:45 12.8 °C 11.1 °C 1012.4 hPa WSW 4.8 km/h 9.7 km/h 89 % 0 mm 0 W/m2
03:50 12.8 °C 10.8 °C 1012.4 hPa WSW 4.8 km/h 11.3 km/h 88 % 0 mm 0 W/m2
03:55 12.7 °C 10.8 °C 1012.4 hPa WSW 4.8 km/h 16.1 km/h 88 % 0 mm 0 W/m2
04:00 12.8 °C 11.1 °C 1012.4 hPa WSW 8 km/h 16.1 km/h 89 % 0 mm 0 W/m2
04:05 12.9 °C 11.1 °C 1012.4 hPa WSW 11.3 km/h 16.1 km/h 89 % 0 mm 0 W/m2
04:10 13 °C 11.2 °C 1012.4 hPa WSW 9.7 km/h 16.1 km/h 89 % 0 mm 0 W/m2
04:15 13.1 °C 11.2 °C 1012.4 hPa West 9.7 km/h 14.5 km/h 88 % 0 mm 0 W/m2
04:20 13.1 °C 11.2 °C 1012.4 hPa WSW 8 km/h 17.7 km/h 88 % 0 mm 0 W/m2
04:25 13.3 °C 11.3 °C 1012.4 hPa West 9.7 km/h 22.5 km/h 88 % 0 mm 0 W/m2
04:30 13.3 °C 11.3 °C 1012.4 hPa West 11.3 km/h 22.5 km/h 88 % 0 mm 0 W/m2
04:35 13.4 °C 11.3 °C 1012.4 hPa WNW 9.7 km/h 22.5 km/h 87 % 0 mm 0 W/m2
04:40 13.4 °C 11.3 °C 1012.4 hPa WNW 8 km/h 12.9 km/h 87 % 0 mm 0 W/m2
04:45 13.3 °C 11.2 °C 1012.4 hPa WNW 6.4 km/h 12.9 km/h 87 % 0 mm 0 W/m2
04:50 13.3 °C 11.2 °C 1012.4 hPa West 4.8 km/h 11.3 km/h 87 % 0 mm 0 W/m2
04:55 13.2 °C 11.3 °C 1012.4 hPa West 6.4 km/h 11.3 km/h 88 % 0 mm 0 W/m2
05:00 13.2 °C 11.3 °C 1012.1 hPa West 8 km/h 16.1 km/h 88 % 0 mm 0 W/m2
05:05 13.2 °C 11.3 °C 1012.4 hPa West 9.7 km/h 16.1 km/h 88 % 0 mm 0 W/m2
05:10 13.3 °C 11.3 °C 1012.4 hPa West 8 km/h 14.5 km/h 88 % 0 mm 0 W/m2
05:15 13.2 °C 11.3 °C 1012.4 hPa West 4.8 km/h 11.3 km/h 88 % 0 mm 0 W/m2
05:25 13 °C 11.1 °C 1012.4 hPa SE 1.6 km/h 6.4 km/h 88 % 0 mm 0 W/m2
05:30 12.8 °C 10.8 °C 1012.4 hPa Calm   6.4 km/h 88 % 0 mm 0 W/m2
05:35 12.6 °C 10.7 °C 1012.4 hPa Calm   4.8 km/h 88 % 0 mm 0 W/m2
05:40 12.4 °C 10.6 °C 1012.4 hPa Calm   1.6 km/h 89 % 0 mm 0 W/m2
05:45 12.3 °C 10.6 °C 1012.8 hPa Calm   3.2 km/h 89 % 0 mm 0 W/m2
05:50 12.2 °C 10.6 °C 1012.4 hPa Calm   3.2 km/h 90 % 0 mm 0 W/m2
05:55 12.1 °C 10.5 °C 1012.4 hPa Calm   3.2 km/h 90 % 0 mm 0 W/m2
06:00 11.9 °C 10.3 °C 1012.4 hPa Calm     90 % 0 mm 0 W/m2
06:05 11.8 °C 10.2 °C 1012.4 hPa Calm     90 % 0 mm 7 W/m2
06:10 11.7 °C 10.3 °C 1012.8 hPa Calm     91 % 0 mm 11 W/m2
06:15 11.7 °C 10.3 °C 1012.8 hPa Calm   1.6 km/h 91 % 0 mm 14 W/m2
06:20 11.6 °C 10.2 °C 1012.8 hPa Calm   1.6 km/h 91 % 0 mm 19 W/m2
06:25 11.5 °C 10.2 °C 1012.8 hPa Calm   1.6 km/h 92 % 0 mm 23 W/m2
06:30 11.5 °C 10.2 °C 1012.8 hPa Calm     92 % 0 mm 26 W/m2
06:36 11.4 °C 10.2 °C 1012.8 hPa Calm     92 % 0 mm 30 W/m2
06:41 11.4 °C 10.2 °C 1013.1 hPa Calm   3.2 km/h 92 % 0 mm 33 W/m2
06:46 11.4 °C 10.2 °C 1013.1 hPa Calm   3.2 km/h 92 % 0 mm 35 W/m2
06:51 11.3 °C 10.2 °C 1013.1 hPa Calm   1.6 km/h 93 % 0 mm 39 W/m2
06:56 11.4 °C 10.3 °C 1013.1 hPa Calm   1.6 km/h 93 % 0 mm 46 W/m2
07:01 11.4 °C 10.3 °C 1012.8 hPa Calm   3.2 km/h 93 % 0 mm 49 W/m2
07:06 11.5 °C 10.4 °C 1013.1 hPa Calm   3.2 km/h 93 % 0 mm 58 W/m2
07:11 11.7 °C 10.8 °C 1013.1 hPa Calm   3.2 km/h 94 % 0 mm 95 W/m2
07:16 11.8 °C 10.9 °C 1013.1 hPa Calm   3.2 km/h 94 % 0 mm 134 W/m2
07:21 12.1 °C 11.2 °C 1013.1 hPa Calm   3.2 km/h 94 % 0 mm 137 W/m2
07:26 12.3 °C 11.4 °C 1013.1 hPa Calm   3.2 km/h 94 % 0 mm 146 W/m2
07:31 12.7 °C 11.8 °C 1013.1 hPa Calm   1.6 km/h 94 % 0 mm 160 W/m2
07:36 13.1 °C 12 °C 1013.1 hPa Calm   8 km/h 93 % 0 mm 171 W/m2
07:41 13.3 °C 12 °C 1013.1 hPa SSW 1.6 km/h 8 km/h 92 % 0 mm 160 W/m2
07:46 13.6 °C 12.2 °C 1013.1 hPa SW 1.6 km/h 8 km/h 91 % 0 mm 185 W/m2
07:51 13.8 °C 12.2 °C 1013.1 hPa SW 4.8 km/h 9.7 km/h 90 % 0 mm 221 W/m2
07:56 14.1 °C 12.3 °C 1013.1 hPa SW 8 km/h 14.5 km/h 89 % 0 mm 243 W/m2
08:01 14.5 °C 12.6 °C 1013.1 hPa WSW 8 km/h 14.5 km/h 88 % 0 mm 285 W/m2
08:06 14.8 °C 12.7 °C 1013.1 hPa SW 8 km/h 16.1 km/h 87 % 0 mm 329 W/m2
08:08 14.9 °C 12.6 °C 1013.1 hPa SW 8 km/h 16.1 km/h 86 % 0 mm 327 W/m2
08:13 15.2 °C 12.7 °C 1013.1 hPa SW 9.7 km/h 17.7 km/h 85 % 0 mm 366 W/m2
08:18 15.6 °C 12.9 °C 1013.1 hPa SW 6.4 km/h 17.7 km/h 84 % 0 mm 318 W/m2
08:23 15.9 °C 13 °C 1013.1 hPa WSW 4.8 km/h 12.9 km/h 83 % 0 mm 316 W/m2
08:28 16.2 °C 13.1 °C 1013.1 hPa WSW 8 km/h 12.9 km/h 82 % 0 mm 355 W/m2
08:33 16.3 °C 13.2 °C 1013.1 hPa WSW 8 km/h 12.9 km/h 82 % 0 mm 355 W/m2
08:38 16.6 °C 13.5 °C 1013.1 hPa WSW 8 km/h 14.5 km/h 82 % 0 mm 390 W/m2
08:43 16.7 °C 13.4 °C 1013.1 hPa WSW 11.3 km/h 29 km/h 81 % 0 mm 373 W/m2
08:48 16.7 °C 13.2 °C 1013.4 hPa WSW 16.1 km/h 29 km/h 80 % 0 mm 241 W/m2
08:53 16.6 °C 13.1 °C 1013.4 hPa West 17.7 km/h 32.2 km/h 80 % 0 mm 313 W/m2
08:58 16.7 °C 13.2 °C 1013.4 hPa West 17.7 km/h 32.2 km/h 80 % 0 mm 381 W/m2
09:03 16.8 °C 13.3 °C 1013.4 hPa West 14.5 km/h 22.5 km/h 80 % 0 mm 388 W/m2
09:08 16.8 °C 13.1 °C 1013.4 hPa West 12.9 km/h 20.9 km/h 79 % 0 mm 420 W/m2
09:13 16.8 °C 13.3 °C 1013.4 hPa WSW 12.9 km/h 20.9 km/h 80 % 0 mm 422 W/m2
09:18 16.9 °C 13.4 °C 1013.4 hPa WSW 14.5 km/h 24.1 km/h 80 % 0 mm 434 W/m2
09:23 17.1 °C 13.2 °C 1013.4 hPa West 16.1 km/h 30.6 km/h 78 % 0 mm 452 W/m2
09:28 17.1 °C 13.2 °C 1013.4 hPa West 17.7 km/h 30.6 km/h 78 % 0 mm 480 W/m2
09:33 17.2 °C 13.3 °C 1013.4 hPa West 16.1 km/h 30.6 km/h 78 % 0 mm 471 W/m2
09:38 17.2 °C 13.1 °C 1013.4 hPa WSW 16.1 km/h 25.7 km/h 77 % 0 mm 482 W/m2
09:43 17.3 °C 13.2 °C 1013.4 hPa West 16.1 km/h 25.7 km/h 77 % 0 mm 487 W/m2
09:48 17.5 °C 13.2 °C 1013.4 hPa West 16.1 km/h 25.7 km/h 76 % 0 mm 506 W/m2
09:53 17.6 °C 13.3 °C 1013.4 hPa WNW 16.1 km/h 25.7 km/h 76 % 0 mm 519 W/m2
09:58 17.9 °C 13.6 °C 1013.4 hPa West 12.9 km/h 24.1 km/h 76 % 0 mm 526 W/m2
10:03 17.9 °C 13.6 °C 1013.4 hPa West 12.9 km/h 20.9 km/h 76 % 0 mm 545 W/m2
10:08 17.9 °C 13.4 °C 1013.4 hPa West 12.9 km/h 24.1 km/h 75 % 0 mm 192 W/m2
10:13 17.8 °C 13.3 °C 1013.4 hPa West 14.5 km/h 25.7 km/h 75 % 0 mm 585 W/m2
10:18 18 °C 13.5 °C 1013.4 hPa West 14.5 km/h 25.7 km/h 75 % 0 mm 246 W/m2
10:23 18.2 °C 13.7 °C 1013.4 hPa West 12.9 km/h 22.5 km/h 75 % 0 mm 663 W/m2
10:29 18.3 °C 13.6 °C 1013.4 hPa West 12.9 km/h 24.1 km/h 74 % 0 mm 710 W/m2
10:34 18.6 °C 13.9 °C 1013.4 hPa West 14.5 km/h 24.1 km/h 74 % 0 mm 643 W/m2
10:39 18.8 °C 13.7 °C 1013.8 hPa West 14.5 km/h 22.5 km/h 72 % 0 mm 680 W/m2
10:44 18.7 °C 13.3 °C 1013.8 hPa West 14.5 km/h 24.1 km/h 71 % 0 mm 220 W/m2
10:49 18.4 °C 13.3 °C 1013.4 hPa West 14.5 km/h 24.1 km/h 72 % 0 mm 214 W/m2
10:54 18.1 °C 13.4 °C 1013.8 hPa West 12.9 km/h 20.9 km/h 74 % 0 mm 533 W/m2
10:59 18.3 °C 13.4 °C 1013.4 hPa West 14.5 km/h 24.1 km/h 73 % 0 mm 664 W/m2
11:04 18.4 °C 13.3 °C 1013.8 hPa West 14.5 km/h 24.1 km/h 72 % 0 mm 758 W/m2
11:09 18.7 °C 13.3 °C 1013.8 hPa West 14.5 km/h 24.1 km/h 71 % 0 mm 687 W/m2
11:14 18.8 °C 13.2 °C 1013.8 hPa West 14.5 km/h 29 km/h 70 % 0 mm 501 W/m2
11:19 18.9 °C 13.3 °C 1013.8 hPa West 16.1 km/h 29 km/h 70 % 0 mm 501 W/m2
11:24 19.1 °C 13.5 °C 1013.8 hPa West 14.5 km/h 25.7 km/h 70 % 0 mm 304 W/m2
11:29 19.1 °C 13.5 °C 1013.8 hPa WNW 12.9 km/h 25.7 km/h 70 % 0 mm 72 W/m2
11:34 18.6 °C 13.9 °C 1013.8 hPa WNW 17.7 km/h 38.6 km/h 74 % 0 mm 47 W/m2
11:39 17.8 °C 13.7 °C 1013.8 hPa WNW 16.1 km/h 38.6 km/h 77 % 0 mm 54 W/m2
11:44 17.3 °C 13.6 °C 1013.8 hPa WNW 11.3 km/h 19.3 km/h 79 % 0 mm 91 W/m2
11:49 17 °C 13.9 °C 1013.8 hPa WNW 8 km/h 17.7 km/h 82 % 0 mm 171 W/m2
11:54 16.8 °C 13.5 °C 1013.8 hPa West 6.4 km/h 12.9 km/h 81 % 0 mm 125 W/m2
11:59 16.5 °C 13.2 °C 1013.8 hPa West 8 km/h 16.1 km/h 81 % 0 mm 132 W/m2
12:04 16.4 °C 13.1 °C 1013.8 hPa West 9.7 km/h 16.1 km/h 81 % 0 mm 174 W/m2
12:09 16.4 °C 12.9 °C 1013.8 hPa West 9.7 km/h 16.1 km/h 80 % 0 mm 218 W/m2
12:14 16.6 °C 13.1 °C 1013.8 hPa West 11.3 km/h 17.7 km/h 80 % 0 mm 264 W/m2
12:19 16.7 °C 13.2 °C 1013.8 hPa West 9.7 km/h 17.7 km/h 80 % 0 mm 288 W/m2
12:24 17 °C 13.1 °C 1013.8 hPa West 11.3 km/h 20.9 km/h 78 % 0 mm 339 W/m2
12:29 17.3 °C 13 °C 1013.8 hPa West 11.3 km/h 20.9 km/h 76 % 0 mm 385 W/m2
12:34 17.7 °C 13.2 °C 1013.8 hPa West 9.7 km/h 24.1 km/h 75 % 0 mm 571 W/m2
12:39 18.2 °C 13.1 °C 1013.8 hPa West 12.9 km/h 24.1 km/h 72 % 0 mm 842 W/m2
12:44 18.7 °C 13.1 °C 1013.8 hPa West 12.9 km/h 24.1 km/h 70 % 0 mm 809 W/m2
12:49 18.9 °C 12.6 °C 1013.8 hPa West 12.9 km/h 32.2 km/h 67 % 0 mm 318 W/m2
12:54 19.2 °C 12.4 °C 1013.8 hPa West 14.5 km/h 32.2 km/h 65 % 0 mm 309 W/m2
12:59 19.3 °C 12.3 °C 1013.8 hPa WNW 14.5 km/h 32.2 km/h 64 % 0 mm 251 W/m2
13:04 19.1 °C 11.9 °C 1014.1 hPa West 16.1 km/h 30.6 km/h 63 % 0 mm 269 W/m2
13:09 18.9 °C 11.9 °C 1013.8 hPa West 16.1 km/h 30.6 km/h 64 % 0 mm 387 W/m2
13:14 18.9 °C 11.9 °C 1013.8 hPa WSW 16.1 km/h 25.7 km/h 64 % 0 mm 615 W/m2
13:19 19.1 °C 12.1 °C 1014.1 hPa WSW 16.1 km/h 25.7 km/h 64 % 0 mm 229 W/m2
13:25 18.9 °C 11.7 °C 1014.1 hPa West 16.1 km/h 29 km/h 63 % 0 mm 139 W/m2
13:30 18.7 °C 12 °C 1014.1 hPa West 16.1 km/h 29 km/h 65 % 0 mm 88 W/m2
13:35 18.3 °C 11.8 °C 1014.1 hPa West 16.1 km/h 25.7 km/h 66 % 0 mm 95 W/m2
13:40 18.1 °C 11.9 °C 1014.1 hPa West 14.5 km/h 25.7 km/h 67 % 0 mm 113 W/m2
13:45 17.9 °C 11.9 °C 1014.1 hPa West 14.5 km/h 29 km/h 68 % 0 mm 320 W/m2
13:50 18 °C 12 °C 1014.1 hPa West 12.9 km/h 29 km/h 68 % 0 mm 475 W/m2
13:55 18.2 °C 11.9 °C 1014.1 hPa West 12.9 km/h 20.9 km/h 67 % 0 mm 371 W/m2
14:00 18.4 °C 12.4 °C 1014.1 hPa West 11.3 km/h 20.9 km/h 68 % 0 mm 504 W/m2
14:05 18.7 °C 12.4 °C 1014.1 hPa West 9.7 km/h 17.7 km/h 67 % 0 mm 508 W/m2
14:10 18.9 °C 12.2 °C 1014.1 hPa West 11.3 km/h 17.7 km/h 65 % 0 mm 163 W/m2
14:15 18.9 °C 11.9 °C 1014.1 hPa West 12.9 km/h 22.5 km/h 64 % 0 mm 123 W/m2
14:20 18.7 °C 11.7 °C 1014.1 hPa West 12.9 km/h 22.5 km/h 64 % 0 mm 105 W/m2
14:23 18.7 °C 11.7 °C 1014.1 hPa West 12.9 km/h 20.9 km/h 64 % 0 mm 121 W/m2
14:28 18.5 °C 11.8 °C 1014.4 hPa West 12.9 km/h 20.9 km/h 65 % 0 mm 181 W/m2
14:33 18.4 °C 11.4 °C 1014.1 hPa West 12.9 km/h 22.5 km/h 64 % 0 mm 163 W/m2
14:38 18.4 °C 11.7 °C 1014.4 hPa WNW 12.9 km/h 22.5 km/h 65 % 0 mm 123 W/m2
14:43 18.4 °C 11.9 °C 1014.4 hPa WNW 11.3 km/h 19.3 km/h 66 % 0 mm 107 W/m2
14:48 18.4 °C 11.9 °C 1014.4 hPa WNW 9.7 km/h 16.1 km/h 66 % 0 mm 153 W/m2
14:53 18.4 °C 11.9 °C 1014.4 hPa WNW 9.7 km/h 16.1 km/h 66 % 0 mm 220 W/m2
14:58 18.4 °C 11.9 °C 1014.4 hPa WNW 9.7 km/h 16.1 km/h 66 % 0 mm 213 W/m2
15:03 18.4 °C 12.2 °C 1014.4 hPa WNW 11.3 km/h 20.9 km/h 67 % 0 mm 227 W/m2
15:08 18.4 °C 11.9 °C 1014.4 hPa West 12.9 km/h 22.5 km/h 66 % 0 mm 243 W/m2
15:13 18.4 °C 12.2 °C 1014.4 hPa West 12.9 km/h 22.5 km/h 67 % 0 mm 267 W/m2
15:18 18.4 °C 11.4 °C 1014.4 hPa West 11.3 km/h 20.9 km/h 64 % 0 mm 214 W/m2
15:23 18.4 °C 11.9 °C 1014.4 hPa West 11.3 km/h 20.9 km/h 66 % 0 mm 179 W/m2
15:28 18.4 °C 11.9 °C 1014.4 hPa West 11.3 km/h 20.9 km/h 66 % 0 mm 232 W/m2
15:33 18.3 °C 12.1 °C 1014.4 hPa West 12.9 km/h 19.3 km/h 67 % 0 mm 265 W/m2
15:38 18.3 °C 12.1 °C 1014.4 hPa West 11.3 km/h 17.7 km/h 67 % 0 mm 236 W/m2
15:43 18.4 °C 11.9 °C 1014.4 hPa West 11.3 km/h 20.9 km/h 66 % 0 mm 195 W/m2
15:48 18.4 °C 11.9 °C 1014.4 hPa West 12.9 km/h 20.9 km/h 66 % 0 mm 267 W/m2
15:53 18.5 °C 12.3 °C 1014.4 hPa West 12.9 km/h 20.9 km/h 67 % 0 mm 292 W/m2
15:58 18.8 °C 12.1 °C 1014.4 hPa West 12.9 km/h 24.1 km/h 65 % 0 mm 612 W/m2
16:03 19.1 °C 12.1 °C 1014.4 hPa West 12.9 km/h 24.1 km/h 64 % 0 mm 640 W/m2
16:08 19.3 °C 12.1 °C 1014.4 hPa West 12.9 km/h 22.5 km/h 63 % 0 mm 332 W/m2
16:13 19.3 °C 11.8 °C 1014.4 hPa West 12.9 km/h 20.9 km/h 62 % 0 mm 276 W/m2
16:18 19.3 °C 11.8 °C 1014.4 hPa West 12.9 km/h 20.9 km/h 62 % 0 mm 271 W/m2
16:23 19.6 °C 12.6 °C 1014.4 hPa West 12.9 km/h 20.9 km/h 64 % 0 mm 480 W/m2
16:28 19.7 °C 12.4 °C 1014.4 hPa West 11.3 km/h 19.3 km/h 63 % 0 mm 214 W/m2
16:33 19.7 °C 11.9 °C 1014.4 hPa West 12.9 km/h 24.1 km/h 61 % 0 mm 311 W/m2
16:38 19.6 °C 12.1 °C 1014.4 hPa West 14.5 km/h 24.1 km/h 62 % 0 mm 457 W/m2
16:43 19.7 °C 12.4 °C 1014.4 hPa West 11.3 km/h 20.9 km/h 63 % 0 mm 181 W/m2
16:48 19.6 °C 12.1 °C 1014.4 hPa West 11.3 km/h 19.3 km/h 62 % 0 mm 345 W/m2
16:53 19.4 °C 11.9 °C 1014.4 hPa WSW 12.9 km/h 20.9 km/h 62 % 0 mm 169 W/m2
16:58 19.3 °C 12.1 °C 1014.4 hPa WSW 11.3 km/h 20.9 km/h 63 % 0 mm 186 W/m2
17:03 19.3 °C 12.1 °C 1014.8 hPa WSW 9.7 km/h 19.3 km/h 63 % 0 mm 295 W/m2
17:08 19.3 °C 12.1 °C 1014.8 hPa West 9.7 km/h 19.3 km/h 63 % 0 mm 146 W/m2
17:13 19.3 °C 12.1 °C 1014.8 hPa West 9.7 km/h 16.1 km/h 63 % 0 mm 216 W/m2
17:18 19.2 °C 12 °C 1014.8 hPa WSW 9.7 km/h 16.1 km/h 63 % 0 mm 153 W/m2
17:23 19 °C 12.1 °C 1014.8 hPa WSW 11.3 km/h 20.9 km/h 64 % 0 mm 141 W/m2
17:28 18.9 °C 11.9 °C 1014.4 hPa WSW 11.3 km/h 20.9 km/h 64 % 0 mm 248 W/m2
17:33 19.1 °C 12.1 °C 1014.4 hPa WSW 11.3 km/h 17.7 km/h 64 % 0 mm 306 W/m2
17:38 19.1 °C 12.1 °C 1014.4 hPa West 9.7 km/h 16.1 km/h 64 % 0 mm 135 W/m2
17:43 19.1 °C 12.1 °C 1014.4 hPa West 9.7 km/h 17.7 km/h 64 % 0 mm 113 W/m2
17:48 19.1 °C 12.1 °C 1014.4 hPa West 9.7 km/h 17.7 km/h 64 % 0 mm 113 W/m2
17:53 18.9 °C 12.2 °C 1014.4 hPa West 9.7 km/h 16.1 km/h 65 % 0 mm 90 W/m2
17:58 18.8 °C 12.3 °C 1014.4 hPa West 8 km/h 12.9 km/h 66 % 0 mm 91 W/m2
18:04 18.7 °C 12.2 °C 1014.8 hPa West 8 km/h 14.5 km/h 66 % 0 mm 91 W/m2
18:09 18.6 °C 12.1 °C 1014.8 hPa West 9.7 km/h 14.5 km/h 66 % 0 mm 98 W/m2
18:14 18.6 °C 12.1 °C 1014.8 hPa West 9.7 km/h 14.5 km/h 66 % 0 mm 102 W/m2
18:19 18.6 °C 12.1 °C 1014.8 hPa West 8 km/h 12.9 km/h 66 % 0 mm 93 W/m2
18:24 18.6 °C 12.3 °C 1014.8 hPa West 6.4 km/h 12.9 km/h 67 % 0 mm 76 W/m2
18:29 18.6 °C 12.3 °C 1014.8 hPa West 4.8 km/h 11.3 km/h 67 % 0 mm 104 W/m2
18:34 18.6 °C 12.3 °C 1014.8 hPa West 6.4 km/h 9.7 km/h 67 % 0 mm 197 W/m2
18:39 18.8 °C 12.3 °C 1014.8 hPa West 6.4 km/h 12.9 km/h 66 % 0 mm 172 W/m2
18:44 18.9 °C 12.2 °C 1014.8 hPa West 6.4 km/h 14.5 km/h 65 % 0 mm 158 W/m2
18:49 19 °C 12.3 °C 1014.8 hPa WNW 8 km/h 14.5 km/h 65 % 0 mm 144 W/m2
18:54 19 °C 12.3 °C 1014.8 hPa WNW 8 km/h 12.9 km/h 65 % 0 mm 123 W/m2
18:59 18.9 °C 12.2 °C 1014.8 hPa WNW 8 km/h 12.9 km/h 65 % 0 mm 76 W/m2
19:04 18.8 °C 12.1 °C 1014.8 hPa WNW 8 km/h 12.9 km/h 65 % 0 mm 69 W/m2
19:09 18.7 °C 12.2 °C 1014.8 hPa WNW 6.4 km/h 11.3 km/h 66 % 0 mm 58 W/m2
19:14 18.5 °C 12.5 °C 1014.8 hPa WNW 6.4 km/h 11.3 km/h 68 % 0 mm 51 W/m2
19:19 18.3 °C 12.3 °C 1014.8 hPa WNW 4.8 km/h 11.3 km/h 68 % 0 mm 47 W/m2
19:24 18.2 °C 12.2 °C 1014.8 hPa WNW 4.8 km/h 11.3 km/h 68 % 0 mm 44 W/m2
19:29 18 °C 12.2 °C 1014.8 hPa NW 4.8 km/h 11.3 km/h 69 % 0 mm 40 W/m2
19:34 17.8 °C 12.1 °C 1014.8 hPa NW 4.8 km/h 11.3 km/h 69 % 0 mm 44 W/m2
19:39 17.7 °C 11.9 °C 1014.8 hPa NW 3.2 km/h 9.7 km/h 69 % 0 mm 46 W/m2
19:44 17.7 °C 12.2 °C 1014.8 hPa NW 1.6 km/h 8 km/h 70 % 0 mm 33 W/m2
19:49 17.6 °C 12.3 °C 1015.1 hPa NW 1.6 km/h 6.4 km/h 71 % 0 mm 28 W/m2
19:54 17.4 °C 12.3 °C 1015.1 hPa NW 1.6 km/h 6.4 km/h 72 % 0 mm 23 W/m2
19:59 17.3 °C 12.2 °C 1015.1 hPa Calm   4.8 km/h 72 % 0 mm 19 W/m2
20:04 17.1 °C 12 °C 1015.1 hPa Calm   1.6 km/h 72 % 0 mm 12 W/m2
20:09 16.9 °C 12 °C 1015.1 hPa Calm     73 % 0 mm 7 W/m2
20:14 16.8 °C 11.9 °C 1015.1 hPa Calm     73 % 0 mm 7 W/m2
20:19 16.6 °C 12.2 °C 1015.5 hPa Calm     75 % 0 mm 7 W/m2
20:24 16.5 °C 12.3 °C 1015.5 hPa Calm     76 % 0 mm 9 W/m2
20:29 16.3 °C 12.1 °C 1015.5 hPa Calm     76 % 0 mm 7 W/m2
20:34 16.2 °C 12.2 °C 1015.5 hPa Calm     77 % 0 mm 0 W/m2
20:39 16 °C 12.2 °C 1015.5 hPa Calm     78 % 0 mm 0 W/m2
20:44 15.8 °C 12.2 °C 1015.5 hPa Calm     79 % 0 mm 0 W/m2
20:49 15.6 °C 12.2 °C 1015.5 hPa Calm     80 % 0 mm 0 W/m2
20:54 15.4 °C 12.2 °C 1015.5 hPa Calm     81 % 0 mm 0 W/m2
20:59 15.3 °C 12.2 °C 1015.5 hPa Calm     82 % 0 mm 0 W/m2
21:04 15.1 °C 12.1 °C 1015.5 hPa Calm     82 % 0 mm 0 W/m2
21:09 14.9 °C 12.1 °C 1015.5 hPa Calm     83 % 0 mm 0 W/m2
21:14 14.8 °C 11.9 °C 1015.5 hPa Calm   1.6 km/h 83 % 0 mm 0 W/m2
21:19 14.6 °C 11.9 °C 1015.5 hPa Calm   1.6 km/h 84 % 0 mm 0 W/m2
21:24 14.4 °C 11.7 °C 1015.5 hPa Calm     84 % 0 mm 0 W/m2
21:29 14.3 °C 11.6 °C 1015.8 hPa Calm   1.6 km/h 84 % 0 mm 0 W/m2
21:34 14.2 °C 11.7 °C 1015.8 hPa Calm   1.6 km/h 85 % 0 mm 0 W/m2
21:39 14.2 °C 11.9 °C 1015.8 hPa Calm   1.6 km/h 86 % 0 mm 0 W/m2
21:44 14.1 °C 11.8 °C 1015.8 hPa Calm   3.2 km/h 86 % 0 mm 0 W/m2
21:50 14.1 °C 11.8 °C 1015.8 hPa Calm   3.2 km/h 86 % 0 mm 0 W/m2
21:55 14 °C 11.9 °C 1015.8 hPa NW 1.6 km/h 6.4 km/h 87 % 0 mm 0 W/m2
22:00 13.9 °C 11.8 °C 1015.8 hPa NW 1.6 km/h 8 km/h 87 % 0 mm 0 W/m2
22:05 13.9 °C 11.8 °C 1015.5 hPa NW 1.6 km/h 8 km/h 87 % 0 mm 0 W/m2
22:10 13.8 °C 11.7 °C 1015.5 hPa Calm   3.2 km/h 87 % 0 mm 0 W/m2
22:15 13.8 °C 11.7 °C 1015.5 hPa Calm     87 % 0 mm 0 W/m2
22:19 13.7 °C 11.6 °C 1015.5 hPa Calm     87 % 0 mm 0 W/m2
22:25 13.6 °C 11.5 °C 1015.5 hPa Calm   1.6 km/h 87 % 0 mm 0 W/m2
22:30 13.4 °C 11.3 °C 1015.5 hPa Calm   3.2 km/h 87 % 0 mm 0 W/m2
22:35 13.4 °C 11.3 °C 1015.5 hPa NW 1.6 km/h 8 km/h 87 % 0 mm 0 W/m2
22:40 13.3 °C 11.3 °C 1015.8 hPa NW 3.2 km/h 8 km/h 88 % 0 mm 0 W/m2
22:45 13.3 °C 11.3 °C 1015.8 hPa NW 1.6 km/h 8 km/h 88 % 0 mm 0 W/m2
22:50 13.3 °C 11.2 °C 1015.8 hPa NW 1.6 km/h 8 km/h 87 % 0 mm 0 W/m2
22:55 13.3 °C 11.2 °C 1015.8 hPa Calm   6.4 km/h 87 % 0 mm 0 W/m2
23:00 13.2 °C 11.1 °C 1015.8 hPa NW 1.6 km/h 6.4 km/h 87 % 0 mm 0 W/m2
23:05 13.1 °C 11.2 °C 1015.8 hPa NW 3.2 km/h 8 km/h 88 % 0 mm 0 W/m2
23:10 13.1 °C 11.2 °C 1015.8 hPa WNW 4.8 km/h 9.7 km/h 88 % 0 mm 0 W/m2
23:15 13 °C 11.1 °C 1015.8 hPa WNW 3.2 km/h 9.7 km/h 88 % 0 mm 0 W/m2
23:20 12.9 °C 10.9 °C 1015.8 hPa WNW 4.8 km/h 11.3 km/h 88 % 0 mm 0 W/m2
23:25 12.9 °C 10.9 °C 1015.8 hPa WNW 8 km/h 12.9 km/h 88 % 0 mm 0 W/m2
23:30 13 °C 10.9 °C 1015.8 hPa WNW 9.7 km/h 14.5 km/h 87 % 0 mm 0 W/m2
23:35 13.1 °C 11 °C 1015.8 hPa WNW 8 km/h 14.5 km/h 87 % 0 mm 0 W/m2
23:37 13.2 °C 11.1 °C 1015.8 hPa WNW 8 km/h 14.5 km/h 87 % 0 mm 0 W/m2
23:42 13.2 °C 10.9 °C 1015.8 hPa WNW 4.8 km/h 11.3 km/h 86 % 0 mm 0 W/m2
23:47 13.3 °C 11 °C 1015.8 hPa WNW 4.8 km/h 11.3 km/h 86 % 0 mm 0 W/m2
23:52 13.3 °C 10.8 °C 1015.8 hPa WNW 6.4 km/h 11.3 km/h 85 % 0 mm 0 W/m2
23:57 13.3 °C 10.8 °C 1015.8 hPa WNW 6.4 km/h 11.3 km/h 85 % 0 mm 0 W/m2
Delerius-Weather
Compliments of Weather Underground - 2.25 mb

Data updates at regular intervals.